Newkirk, New Mexico
Current Conditions -  °F | °C
As of 4:53 PM on Friday 21 Nov 2014 (Local Time) from KTCC Reporting Station
Clear Clear  
Wind Chill: 52°   Ceiling: Unl
Heat Index: 52°   Visibility: 10mi
Dew Point: 23°   Wind: 7mph
Humidity: 32%   Direction: 190°S
Pressure: 29.94"   Gusts: NA
Location:  35.07°N, 104.27°W
Report Text: KTCC 212353Z AUTO 19006KT 10SM CLR 11/M05 A2994 RMK AO2 SLP135 T01111050 10189 20100 53005
Loading
Personal Weather Stations






























Interactive Weather Map New forecast layout! Learn more

10-Day Weather Forecast

Advertisements
Track Severe Weather on mobile